Terminal Aerodrome Forecast
Issued by NWS

Home | Current Version | Previous Version | Graphics & Text | Print | Product List | Glossary On
Versions: 1 2 3 4 5 6 7 8 9 10 11 12 13 14 15 16 17 18 19 20
000
FTUS43 KBIS 041735
TAFDIK
TAF
KDIK 041735Z 0418/0518 25010KT P6SM SKC
     FM050100 19007KT P6SM OVC110
     FM050600 20007KT P6SM VCSH BKN060
     FM050800 25008KT P6SM VCSH BKN035
     FM051300 30018G27KT P6SM OVC015=

USA.gov is the U.S. government's official web portal to all federal, state and local government web resources and services.